createdAt,value
2016-07-23T00:00:04.432Z,0
2016-07-23T00:01:04.374Z,0
2016-07-23T00:02:04.504Z,0
2016-07-23T00:03:04.385Z,0
2016-07-23T00:04:04.472Z,0
2016-07-23T00:05:04.340Z,0
2016-07-23T00:06:04.360Z,0
2016-07-23T00:07:04.438Z,0
2016-07-23T00:08:04.408Z,0
2016-07-23T00:09:04.352Z,0
2016-07-23T00:10:04.436Z,0
2016-07-23T00:11:04.434Z,0
2016-07-23T00:12:04.444Z,0
2016-07-23T00:13:04.416Z,0
2016-07-23T00:14:04.375Z,0
2016-07-23T00:15:04.363Z,0
2016-07-23T00:16:04.379Z,0
2016-07-23T00:17:04.346Z,0
2016-07-23T00:18:04.404Z,0
2016-07-23T00:19:04.399Z,0
2016-07-23T00:20:04.381Z,0
2016-07-23T00:21:04.413Z,0
2016-07-23T00:22:04.383Z,0
2016-07-23T00:23:04.394Z,0
2016-07-23T00:24:04.382Z,0
2016-07-23T00:25:04.393Z,0
2016-07-23T00:26:04.412Z,0
2016-07-23T00:27:04.473Z,0
2016-07-23T00:28:04.381Z,0
2016-07-23T00:29:04.381Z,0
2016-07-23T00:30:04.468Z,0
2016-07-23T00:31:04.445Z,0
2016-07-23T00:32:04.349Z,0
2016-07-23T00:33:04.386Z,0
2016-07-23T00:34:04.393Z,0
2016-07-23T00:35:04.442Z,0
2016-07-23T00:36:04.382Z,0
2016-07-23T00:37:04.415Z,0
2016-07-23T00:38:04.443Z,0
2016-07-23T00:39:04.399Z,0
2016-07-23T00:40:04.441Z,0
2016-07-23T00:41:04.395Z,0
2016-07-23T00:42:05.078Z,0
2016-07-23T00:43:04.972Z,0
2016-07-23T00:44:04.515Z,0
2016-07-23T00:45:04.444Z,0
2016-07-23T00:46:04.402Z,0
2016-07-23T00:47:04.471Z,0
2016-07-23T00:48:04.374Z,0
2016-07-23T00:49:04.399Z,0
2016-07-23T00:50:04.397Z,0
2016-07-23T00:51:04.378Z,0
2016-07-23T00:52:04.383Z,0
2016-07-23T00:53:04.414Z,0
2016-07-23T00:54:04.436Z,0
2016-07-23T00:55:04.416Z,0
2016-07-23T00:56:04.385Z,0
2016-07-23T00:57:04.447Z,0
2016-07-23T00:58:04.391Z,0
2016-07-23T00:59:04.414Z,0
2016-07-23T01:00:04.492Z,0
2016-07-23T01:01:04.456Z,0
2016-07-23T01:02:04.505Z,0
2016-07-23T01:03:04.396Z,0
2016-07-23T01:04:04.433Z,0
2016-07-23T01:05:04.424Z,0
2016-07-23T01:06:04.414Z,0
2016-07-23T01:07:04.594Z,0
2016-07-23T01:08:04.466Z,0
2016-07-23T01:09:04.441Z,0
2016-07-23T01:10:04.424Z,0
2016-07-23T01:11:04.410Z,0
2016-07-23T01:12:04.416Z,0
2016-07-23T01:13:04.427Z,0
2016-07-23T01:14:04.381Z,0
2016-07-23T01:15:04.392Z,0
2016-07-23T01:16:04.432Z,0
2016-07-23T01:17:04.438Z,0
2016-07-23T01:18:04.407Z,0
2016-07-23T01:19:04.447Z,0
2016-07-23T01:20:04.417Z,0
2016-07-23T01:21:04.418Z,0
2016-07-23T01:22:04.424Z,0
2016-07-23T01:23:04.476Z,0
2016-07-23T01:24:04.427Z,0
2016-07-23T01:25:04.498Z,0
2016-07-23T01:26:04.391Z,0
2016-07-23T01:27:04.381Z,0
2016-07-23T01:28:04.416Z,0
2016-07-23T01:29:04.439Z,0
2016-07-23T01:30:04.430Z,0
2016-07-23T01:31:04.465Z,0
2016-07-23T01:32:04.447Z,0
2016-07-23T01:33:04.447Z,0
2016-07-23T01:34:04.449Z,0
2016-07-23T01:35:04.443Z,0
2016-07-23T01:36:04.466Z,0
2016-07-23T01:37:04.448Z,0
2016-07-23T01:38:04.448Z,0
2016-07-23T01:39:04.477Z,0
2016-07-23T01:40:04.475Z,0
2016-07-23T01:41:04.493Z,0
2016-07-23T01:42:04.512Z,0
2016-07-23T01:43:04.478Z,0
2016-07-23T01:44:04.469Z,0
2016-07-23T01:45:04.550Z,0
2016-07-23T01:46:04.494Z,0
2016-07-23T01:47:04.508Z,0
2016-07-23T01:48:04.514Z,0
2016-07-23T01:49:04.509Z,0
2016-07-23T01:50:17.217Z,0
2016-07-23T01:51:04.507Z,0
2016-07-23T01:52:04.507Z,0
2016-07-23T01:53:04.505Z,0
2016-07-23T01:54:04.508Z,0
2016-07-23T01:55:04.443Z,0
2016-07-23T01:56:04.433Z,0
2016-07-23T01:57:04.503Z,0
2016-07-23T01:58:04.476Z,0
2016-07-23T01:59:04.463Z,0
2016-07-23T02:00:04.448Z,0
2016-07-23T02:01:04.419Z,0
2016-07-23T02:02:04.454Z,0
2016-07-23T02:03:04.478Z,0
2016-07-23T02:04:04.486Z,0
2016-07-23T02:05:04.466Z,0
2016-07-23T02:06:04.543Z,0
2016-07-23T02:07:04.480Z,0
2016-07-23T02:08:04.479Z,0
2016-07-23T02:09:04.460Z,0
2016-07-23T02:10:04.480Z,0
2016-07-23T02:11:04.457Z,0
2016-07-23T02:12:04.469Z,0
2016-07-23T02:13:04.474Z,0
2016-07-23T02:14:04.526Z,0
2016-07-23T02:15:04.464Z,0
2016-07-23T02:16:04.504Z,0
2016-07-23T02:17:04.450Z,0
2016-07-23T02:18:04.480Z,0
2016-07-23T02:19:04.510Z,0
2016-07-23T02:20:04.514Z,0
2016-07-23T02:21:04.485Z,0
2016-07-23T02:22:04.449Z,0
2016-07-23T02:23:04.500Z,0
2016-07-23T02:24:04.465Z,0
2016-07-23T02:25:04.480Z,0
2016-07-23T02:26:04.519Z,0
2016-07-23T02:27:04.494Z,0
2016-07-23T02:28:04.570Z,0
2016-07-23T02:29:04.511Z,0
2016-07-23T02:30:04.509Z,0
2016-07-23T02:31:04.480Z,0
2016-07-23T02:32:04.521Z,0
2016-07-23T02:33:04.497Z,0
2016-07-23T02:34:04.517Z,0
2016-07-23T02:35:04.509Z,0
2016-07-23T02:36:04.549Z,0
2016-07-23T02:37:04.501Z,0
2016-07-23T02:38:04.515Z,0
2016-07-23T02:39:04.510Z,0
2016-07-23T02:40:04.541Z,0
2016-07-23T02:41:04.511Z,0
2016-07-23T02:42:04.520Z,0
2016-07-23T02:43:04.509Z,0
2016-07-23T02:44:04.538Z,0
2016-07-23T02:45:04.543Z,0
2016-07-23T02:46:04.513Z,0
2016-07-23T02:47:04.516Z,0
2016-07-23T02:48:04.526Z,0
2016-07-23T02:49:04.498Z,0
2016-07-23T02:50:04.483Z,0
2016-07-23T02:51:04.521Z,0
2016-07-23T02:52:04.518Z,0
2016-07-23T02:53:04.479Z,0
2016-07-23T02:54:04.577Z,0
2016-07-23T02:55:04.545Z,0
2016-07-23T02:56:04.501Z,0
2016-07-23T02:57:04.547Z,0
2016-07-23T02:58:04.570Z,0
2016-07-23T02:59:04.539Z,0
2016-07-23T03:00:04.529Z,0
2016-07-23T03:01:04.525Z,0
2016-07-23T03:02:04.518Z,0
2016-07-23T03:03:04.508Z,0
2016-07-23T03:04:04.503Z,0
2016-07-23T03:05:04.537Z,0
2016-07-23T03:06:04.450Z,0
2016-07-23T03:07:04.511Z,0
2016-07-23T03:08:04.530Z,0
2016-07-23T03:09:04.538Z,0
2016-07-23T03:10:04.495Z,0
2016-07-23T03:11:04.545Z,0
2016-07-23T03:12:04.511Z,0
2016-07-23T03:13:04.521Z,0
2016-07-23T03:14:04.551Z,0
2016-07-23T03:15:04.541Z,0
2016-07-23T03:16:04.534Z,0
2016-07-23T03:17:04.533Z,0
2016-07-23T03:18:04.541Z,0
2016-07-23T03:19:04.559Z,0
2016-07-23T03:20:04.541Z,0
2016-07-23T03:21:04.601Z,0
2016-07-23T03:22:04.566Z,0
2016-07-23T03:23:04.539Z,0
2016-07-23T03:24:04.526Z,0
2016-07-23T03:25:04.539Z,0
2016-07-23T03:26:04.572Z,0
2016-07-23T03:27:04.544Z,0
2016-07-23T03:28:04.536Z,0
2016-07-23T03:29:04.571Z,0
2016-07-23T03:30:04.602Z,0
2016-07-23T03:31:04.566Z,0
2016-07-23T03:32:04.598Z,0
2016-07-23T03:33:04.572Z,0
2016-07-23T03:34:04.570Z,0
2016-07-23T03:35:04.591Z,0
2016-07-23T03:36:04.576Z,0
2016-07-23T03:37:04.522Z,0
2016-07-23T03:38:04.546Z,0
2016-07-23T03:39:04.548Z,5
2016-07-23T03:40:04.602Z,5
2016-07-23T03:41:04.575Z,5
2016-07-23T03:42:04.543Z,5
2016-07-23T03:43:04.553Z,5
2016-07-23T03:44:04.568Z,5
2016-07-23T03:45:04.573Z,5
2016-07-23T03:46:04.566Z,5
2016-07-23T03:47:04.584Z,5
2016-07-23T03:48:04.591Z,10
2016-07-23T03:49:04.586Z,10
2016-07-23T03:50:04.558Z,10
2016-07-23T03:51:04.559Z,10
2016-07-23T03:52:04.548Z,10
2016-07-23T03:53:05.608Z,10
2016-07-23T03:54:04.579Z,15
2016-07-23T03:55:04.550Z,15
2016-07-23T03:56:04.589Z,15
2016-07-23T03:57:04.598Z,15
2016-07-23T03:58:04.575Z,15
2016-07-23T03:59:04.572Z,15
2016-07-23T04:00:04.566Z,20
2016-07-23T04:01:04.590Z,20
2016-07-23T04:02:04.571Z,20
2016-07-23T04:03:04.577Z,20
2016-07-23T04:04:04.611Z,20
2016-07-23T04:05:04.604Z,25
2016-07-23T04:06:04.597Z,25
2016-07-23T04:07:04.574Z,25
2016-07-23T04:08:04.601Z,30
2016-07-23T04:09:04.572Z,30
2016-07-23T04:10:04.556Z,30
2016-07-23T04:11:04.573Z,35
2016-07-23T04:12:04.552Z,35
2016-07-23T04:13:04.647Z,35
2016-07-23T04:14:05.331Z,40
2016-07-23T04:15:04.546Z,40
2016-07-23T04:16:04.636Z,40
2016-07-23T04:17:04.557Z,45
2016-07-23T04:18:04.559Z,45
2016-07-23T04:19:04.576Z,45
2016-07-23T04:20:04.624Z,40
2016-07-23T04:21:04.588Z,45
2016-07-23T04:22:04.595Z,45
2016-07-23T04:23:04.600Z,45
2016-07-23T04:24:04.578Z,45
2016-07-23T04:25:04.586Z,50
2016-07-23T04:26:04.606Z,50
2016-07-23T04:27:04.583Z,50
2016-07-23T04:28:04.576Z,50
2016-07-23T04:29:04.634Z,50
2016-07-23T04:30:04.564Z,50
2016-07-23T04:31:04.579Z,50
2016-07-23T04:32:04.563Z,55
2016-07-23T04:33:04.597Z,55
2016-07-23T04:34:04.586Z,55
2016-07-23T04:35:04.604Z,60
2016-07-23T04:36:04.636Z,60
2016-07-23T04:37:04.617Z,60
2016-07-23T04:38:04.580Z,65
2016-07-23T04:39:04.637Z,65
2016-07-23T04:40:04.640Z,65
2016-07-23T04:41:04.646Z,70
2016-07-23T04:42:04.636Z,70
2016-07-23T04:43:04.634Z,75
2016-07-23T04:44:04.581Z,75
2016-07-23T04:45:04.615Z,80
2016-07-23T04:46:04.627Z,80
2016-07-23T04:47:04.598Z,85
2016-07-23T04:48:04.621Z,85
2016-07-23T04:49:04.672Z,90
2016-07-23T04:50:04.604Z,95
2016-07-23T04:51:04.597Z,95
2016-07-23T04:52:04.671Z,95
2016-07-23T04:53:04.600Z,95
2016-07-23T04:54:04.635Z,95
2016-07-23T04:55:04.744Z,100
2016-07-23T04:56:04.742Z,100
2016-07-23T04:57:04.593Z,100
2016-07-23T04:58:04.612Z,105
2016-07-23T04:59:04.636Z,105
2016-07-23T05:00:04.637Z,105
2016-07-23T05:01:04.638Z,110
2016-07-23T05:02:04.625Z,110
2016-07-23T05:03:04.632Z,115
2016-07-23T05:04:04.636Z,120
2016-07-23T05:05:04.666Z,125
2016-07-23T05:06:04.654Z,130
2016-07-23T05:07:04.649Z,135
2016-07-23T05:08:04.668Z,135
2016-07-23T05:09:04.618Z,140
2016-07-23T05:10:04.671Z,140
2016-07-23T05:11:04.668Z,140
2016-07-23T05:12:04.967Z,145
2016-07-23T05:13:04.644Z,145
2016-07-23T05:14:04.711Z,150
2016-07-23T05:15:04.627Z,155
2016-07-23T05:16:04.640Z,155
2016-07-23T05:17:04.730Z,165
2016-07-23T05:18:04.610Z,160
2016-07-23T05:19:04.667Z,165
2016-07-23T05:20:04.604Z,165
2016-07-23T05:21:04.617Z,170
2016-07-23T05:22:04.633Z,170
2016-07-23T05:23:04.669Z,170
2016-07-23T05:24:04.652Z,175
2016-07-23T05:25:05.238Z,175
2016-07-23T05:26:04.716Z,175
2016-07-23T05:27:04.708Z,180
2016-07-23T05:28:04.671Z,180
2016-07-23T05:29:04.665Z,180
2016-07-23T05:30:04.660Z,185
2016-07-23T05:31:04.666Z,185
2016-07-23T05:32:04.821Z,185
2016-07-23T05:33:04.676Z,190
2016-07-23T05:34:04.670Z,190
2016-07-23T05:35:05.329Z,190
2016-07-23T05:36:04.932Z,190
2016-07-23T05:37:04.807Z,190
2016-07-23T05:38:05.761Z,170
2016-07-23T05:39:05.215Z,170
2016-07-23T05:40:04.678Z,170
2016-07-23T05:41:04.673Z,175
2016-07-23T05:42:04.667Z,175
2016-07-23T05:43:04.689Z,180
2016-07-23T05:44:04.751Z,180
2016-07-23T05:45:05.774Z,180
2016-07-23T05:46:04.782Z,185
2016-07-23T05:47:04.829Z,200
2016-07-23T05:48:04.866Z,205
2016-07-23T05:49:04.804Z,205
2016-07-23T05:50:04.771Z,210
2016-07-23T05:51:04.855Z,215
2016-07-23T05:52:04.787Z,215
2016-07-23T05:53:05.211Z,220
2016-07-23T05:54:05.238Z,225
2016-07-23T05:55:05.169Z,225
2016-07-23T05:56:04.831Z,230
2016-07-23T05:57:04.742Z,230
2016-07-23T05:58:04.701Z,235
2016-07-23T05:59:04.706Z,235
2016-07-23T06:00:04.686Z,240
2016-07-23T06:01:04.732Z,240
2016-07-23T06:02:04.673Z,245
2016-07-23T06:03:04.728Z,245
2016-07-23T06:04:04.714Z,245
2016-07-23T06:05:04.699Z,245
2016-07-23T06:06:04.744Z,250
2016-07-23T06:07:04.697Z,260
2016-07-23T06:08:04.736Z,265
2016-07-23T06:09:04.740Z,255
2016-07-23T06:10:04.756Z,260
2016-07-23T06:11:04.738Z,265
2016-07-23T06:12:04.702Z,270
2016-07-23T06:13:04.743Z,280
2016-07-23T06:14:04.740Z,285
2016-07-23T06:15:04.728Z,290
2016-07-23T06:16:04.735Z,345
